Terminal Aerodrome Forecast
Issued by NWS

Home | Current Version | Previous Version | Text Only | Print | Product List | Glossary On
Versions: 1 2 3 4 5 6 7 8 9 10 11 12 13 14 15 16
000
FTAK31 PAJN 281700
TAFAGY
TAF
PAGY 281720Z 2818/2918 03005KT P6SM BKN020 BKN080
     FM290300 VRB04KT P6SM -RA SCT025 OVC050
     FM291000 20008KT P6SM -SHRA SCT025 OVC050
      AMD LTD TO CLD VIS AND WIND=

USA.gov is the U.S. government's official web portal to all federal, state and local government web resources and services.